createdAt,value
2017-08-21T00:00:37.155Z,10.30
2017-08-21T00:03:34.646Z,10.40
2017-08-21T00:06:32.159Z,10.40
2017-08-21T00:09:29.703Z,10.30
2017-08-21T00:12:27.060Z,10.20
2017-08-21T00:15:26.442Z,10.40
2017-08-21T00:18:30.010Z,10.50
2017-08-21T00:21:27.551Z,10.60
2017-08-21T00:24:30.108Z,10.70
2017-08-21T00:27:27.647Z,10.60
2017-08-21T00:30:25.241Z,10.50
2017-08-21T00:33:22.923Z,10.30
2017-08-21T00:36:20.416Z,10.30
2017-08-21T00:39:17.986Z,10.40
2017-08-21T00:42:15.407Z,10.60
2017-08-21T00:45:12.919Z,10.70
2017-08-21T00:48:10.407Z,10.70
2017-08-21T00:51:08.050Z,10.80
2017-08-21T00:54:05.520Z,10.90
2017-08-21T00:57:04.219Z,10.80
2017-08-21T01:00:01.897Z,10.80
2017-08-21T01:02:59.462Z,11.00
2017-08-21T01:05:57.843Z,11.10
2017-08-21T01:08:55.515Z,11.10
2017-08-21T01:11:53.959Z,11.10
2017-08-21T01:14:51.609Z,11.10
2017-08-21T01:17:50.144Z,10.90
2017-08-21T01:20:47.755Z,10.90
2017-08-21T01:23:45.294Z,10.90
2017-08-21T01:26:42.850Z,11.00
2017-08-21T01:29:40.326Z,11.00
2017-08-21T01:32:37.995Z,10.90
2017-08-21T01:35:36.589Z,10.90
2017-08-21T01:38:33.928Z,10.90
2017-08-21T01:41:31.498Z,10.90
2017-08-21T01:44:29.146Z,10.90
2017-08-21T01:47:26.591Z,10.80
2017-08-21T01:50:24.018Z,10.90
2017-08-21T01:53:22.555Z,10.90
2017-08-21T01:56:21.351Z,11.00
2017-08-21T01:59:18.816Z,11.00
2017-08-21T02:02:16.503Z,11.10
2017-08-21T02:05:14.029Z,11.10
2017-08-21T02:08:14.647Z,11.20
2017-08-21T02:11:12.290Z,11.20
2017-08-21T02:14:09.638Z,11.20
2017-08-21T02:17:08.345Z,11.20
2017-08-21T02:20:05.855Z,11.20
2017-08-21T02:23:04.454Z,11.30
2017-08-21T02:26:02.160Z,11.20
2017-08-21T02:28:59.571Z,11.30
2017-08-21T02:31:57.043Z,11.30
2017-08-21T02:34:55.712Z,11.30
2017-08-21T02:37:53.024Z,11.30
2017-08-21T02:40:50.539Z,11.40
2017-08-21T02:43:48.308Z,11.30
2017-08-21T02:46:45.852Z,11.30
2017-08-21T02:49:43.385Z,11.30
2017-08-21T02:52:40.987Z,11.30
2017-08-21T02:55:38.663Z,11.20
2017-08-21T02:58:36.379Z,11.30
2017-08-21T03:01:36.626Z,11.40
2017-08-21T03:04:35.419Z,11.40
2017-08-21T03:07:32.961Z,11.40
2017-08-21T03:10:30.492Z,11.50
2017-08-21T03:13:27.978Z,11.50
2017-08-21T03:16:25.578Z,11.50
2017-08-21T03:19:23.067Z,11.40
2017-08-21T03:22:20.385Z,11.30
2017-08-21T03:25:17.991Z,11.30
2017-08-21T03:28:15.720Z,11.20
2017-08-21T03:31:13.212Z,11.10
2017-08-21T03:34:10.664Z,11.00
2017-08-21T03:37:08.043Z,11.00
2017-08-21T03:40:05.512Z,11.00
2017-08-21T03:43:02.923Z,11.10
2017-08-21T03:46:00.353Z,11.20
2017-08-21T03:48:58.898Z,11.20
2017-08-21T03:51:56.495Z,11.20
2017-08-21T03:54:54.026Z,11.20
2017-08-21T03:57:51.539Z,11.20
2017-08-21T04:00:49.118Z,11.20
2017-08-21T04:03:46.882Z,11.20
2017-08-21T04:06:44.315Z,11.20
2017-08-21T04:09:42.087Z,11.20
2017-08-21T04:12:40.475Z,11.20
2017-08-21T04:15:38.095Z,11.20
2017-08-21T04:18:35.567Z,11.20
2017-08-21T04:21:33.039Z,11.20
2017-08-21T04:24:30.607Z,11.20
2017-08-21T04:27:28.127Z,11.30
2017-08-21T04:30:26.513Z,11.40
2017-08-21T04:33:24.951Z,11.30
2017-08-21T04:36:23.491Z,11.40
2017-08-21T04:39:21.015Z,11.40
2017-08-21T04:42:21.534Z,11.40
2017-08-21T04:45:22.108Z,11.50
2017-08-21T04:48:19.547Z,11.60
2017-08-21T04:51:17.230Z,11.60
2017-08-21T04:54:25.797Z,11.60
2017-08-21T04:57:23.427Z,11.60
2017-08-21T05:00:23.985Z,11.60
2017-08-21T05:03:21.749Z,11.60
2017-08-21T05:06:19.314Z,11.60
2017-08-21T05:09:17.839Z,11.80
2017-08-21T05:12:21.535Z,11.80
2017-08-21T05:15:20.067Z,11.80
2017-08-21T05:18:17.474Z,11.90
2017-08-21T05:21:14.858Z,11.90
2017-08-21T05:24:12.363Z,12.00
2017-08-21T05:27:10.745Z,12.10
2017-08-21T05:30:11.293Z,12.10
2017-08-21T05:33:17.114Z,12.20
2017-08-21T05:36:14.557Z,12.30
2017-08-21T05:39:12.115Z,12.40
2017-08-21T05:42:09.771Z,12.40
2017-08-21T05:45:07.322Z,12.50
2017-08-21T05:48:04.827Z,12.60
2017-08-21T05:51:02.284Z,12.60
2017-08-21T05:53:59.929Z,12.70
2017-08-21T05:56:57.499Z,12.80
2017-08-21T05:59:55.012Z,12.90
2017-08-21T06:02:52.561Z,13.00
2017-08-21T06:05:50.050Z,13.00
2017-08-21T06:08:47.434Z,13.10
2017-08-21T06:11:44.891Z,13.20
2017-08-21T06:14:42.366Z,13.40
2017-08-21T06:17:40.064Z,13.50
2017-08-21T06:20:37.606Z,13.60
2017-08-21T06:23:34.994Z,13.80
2017-08-21T06:26:32.324Z,13.90
2017-08-21T06:29:29.951Z,14.00
2017-08-21T06:32:27.487Z,14.20
2017-08-21T06:35:25.029Z,14.40
2017-08-21T06:38:22.583Z,14.60
2017-08-21T06:41:20.206Z,14.80
2017-08-21T06:44:18.936Z,14.80
2017-08-21T06:47:16.434Z,15.00
2017-08-21T06:50:13.732Z,15.10
2017-08-21T06:53:11.320Z,15.40
2017-08-21T06:56:09.915Z,15.80
2017-08-21T06:59:07.558Z,15.80
2017-08-21T07:02:05.043Z,15.90
2017-08-21T07:05:02.578Z,16.00
2017-08-21T07:08:01.198Z,16.30
2017-08-21T07:10:58.865Z,16.20
2017-08-21T07:13:57.295Z,16.40
2017-08-21T07:16:54.775Z,16.50
2017-08-21T07:19:52.285Z,16.60
2017-08-21T07:22:49.745Z,16.70
2017-08-21T07:25:47.317Z,16.90
2017-08-21T07:28:44.724Z,17.00
2017-08-21T07:31:42.385Z,17.20
2017-08-21T07:34:39.477Z,17.40
2017-08-21T07:37:37.904Z,17.50
2017-08-21T07:40:36.278Z,18.00
2017-08-21T07:43:33.752Z,17.90
2017-08-21T07:46:31.064Z,18.10
2017-08-21T07:49:28.438Z,18.30
2017-08-21T07:52:26.019Z,18.40
2017-08-21T07:55:24.440Z,18.70
2017-08-21T07:58:21.881Z,18.70
2017-08-21T08:01:19.360Z,18.70
2017-08-21T08:04:17.066Z,18.90
2017-08-21T08:07:14.631Z,19.20
2017-08-21T08:10:12.195Z,19.50
2017-08-21T08:13:09.684Z,19.50
2017-08-21T08:16:07.201Z,19.30
2017-08-21T08:19:04.573Z,19.30
2017-08-21T08:22:01.964Z,19.50
2017-08-21T08:24:59.291Z,19.80
2017-08-21T08:27:56.921Z,19.80
2017-08-21T08:30:54.355Z,19.90
2017-08-21T08:33:51.685Z,19.90
2017-08-21T08:36:49.209Z,20.00
2017-08-21T08:39:46.442Z,19.90
2017-08-21T08:42:43.799Z,19.90
2017-08-21T08:45:41.243Z,19.80
2017-08-21T08:48:38.655Z,20.00
2017-08-21T08:51:36.108Z,20.10
2017-08-21T08:54:33.550Z,20.20
2017-08-21T08:57:30.998Z,20.30
2017-08-21T09:00:28.528Z,20.30
2017-08-21T09:03:26.106Z,20.30
2017-08-21T09:06:23.553Z,20.20
2017-08-21T09:09:21.091Z,20.00
2017-08-21T09:12:18.546Z,20.10
2017-08-21T09:15:16.054Z,20.20
2017-08-21T09:18:13.577Z,20.40
2017-08-21T09:21:12.264Z,20.60
2017-08-21T09:24:09.691Z,20.50
2017-08-21T09:27:08.179Z,20.80
2017-08-21T09:30:05.824Z,20.80
2017-08-21T09:33:03.289Z,20.90
2017-08-21T09:36:01.761Z,21.00
2017-08-21T09:38:59.169Z,21.10
2017-08-21T09:41:56.526Z,21.30
2017-08-21T09:44:53.982Z,21.40
2017-08-21T09:47:51.434Z,21.50
2017-08-21T09:50:49.049Z,21.50
2017-08-21T09:53:46.531Z,21.60
2017-08-21T09:56:44.008Z,21.60
2017-08-21T09:59:41.483Z,21.50
2017-08-21T10:02:38.944Z,21.60
2017-08-21T10:05:36.550Z,21.60
2017-08-21T10:08:34.126Z,21.80
2017-08-21T10:11:31.680Z,21.90
2017-08-21T10:14:29.209Z,22.10
2017-08-21T10:18:31.637Z,22.40
2017-08-21T10:21:29.659Z,22.50
2017-08-21T10:24:27.408Z,22.70
2017-08-21T10:27:24.923Z,22.80
2017-08-21T10:30:23.535Z,23.00
2017-08-21T10:33:21.450Z,22.90
2017-08-21T10:36:19.105Z,22.90
2017-08-21T10:39:16.913Z,22.90
2017-08-21T10:42:14.697Z,23.10
2017-08-21T10:45:12.499Z,23.10
2017-08-21T10:48:11.239Z,23.10
2017-08-21T10:51:10.088Z,23.00
2017-08-21T10:54:07.903Z,23.00
2017-08-21T10:57:06.987Z,23.20
2017-08-21T11:00:05.753Z,23.40
2017-08-21T11:03:04.545Z,23.70
2017-08-21T11:06:03.254Z,24.00
2017-08-21T11:09:02.189Z,24.00
2017-08-21T11:12:00.018Z,23.80
2017-08-21T11:14:58.884Z,23.90
2017-08-21T11:17:56.654Z,24.10
2017-08-21T11:20:54.441Z,24.50
2017-08-21T11:24:01.288Z,25.00
2017-08-21T11:26:58.408Z,25.20
2017-08-21T11:29:57.126Z,25.20
2017-08-21T11:32:54.999Z,24.30
2017-08-21T11:35:54.506Z,23.70
2017-08-21T11:38:52.282Z,23.20
2017-08-21T11:41:51.954Z,23.10
2017-08-21T11:44:50.815Z,23.10
2017-08-21T11:47:49.725Z,23.60
2017-08-21T11:50:47.622Z,23.80
2017-08-21T11:53:45.595Z,23.30
2017-08-21T11:56:46.390Z,22.70
2017-08-21T11:59:44.982Z,22.70
2017-08-21T12:02:42.836Z,22.70
2017-08-21T12:05:42.680Z,22.70
2017-08-21T12:08:40.602Z,22.70
2017-08-21T12:11:40.495Z,22.70
2017-08-21T12:14:41.214Z,23.00
2017-08-21T12:17:39.064Z,23.40
2017-08-21T12:20:36.980Z,23.50
2017-08-21T12:23:34.455Z,23.60
2017-08-21T12:26:34.003Z,23.50
2017-08-21T12:29:32.647Z,23.10
2017-08-21T12:32:30.363Z,23.10
2017-08-21T12:35:29.231Z,23.00
2017-08-21T12:38:26.943Z,23.30
2017-08-21T12:41:24.714Z,23.90
2017-08-21T12:44:22.372Z,24.20
2017-08-21T12:47:20.374Z,24.50
2017-08-21T12:50:18.155Z,24.20
2017-08-21T12:53:15.989Z,23.90
2017-08-21T12:56:13.721Z,23.50
2017-08-21T12:59:11.312Z,23.10
2017-08-21T13:02:09.054Z,23.20
2017-08-21T13:05:06.893Z,23.60
2017-08-21T13:08:04.707Z,24.00
2017-08-21T13:11:02.783Z,23.90
2017-08-21T13:14:00.706Z,23.80
2017-08-21T13:16:59.299Z,23.40
2017-08-21T13:19:57.195Z,22.90
2017-08-21T13:22:55.584Z,22.50
2017-08-21T13:25:53.374Z,22.60
2017-08-21T13:28:51.091Z,22.50
2017-08-21T13:31:48.821Z,22.60
2017-08-21T13:34:48.357Z,22.40
2017-08-21T13:37:46.074Z,22.60
2017-08-21T13:40:43.855Z,22.80
2017-08-21T13:43:41.876Z,23.10
2017-08-21T13:46:39.739Z,23.50
2017-08-21T13:49:37.445Z,23.40
2017-08-21T13:52:35.235Z,23.70
2017-08-21T13:55:33.017Z,24.20
2017-08-21T13:58:31.692Z,24.50
2017-08-21T14:01:30.534Z,24.80
2017-08-21T14:04:28.424Z,24.80
2017-08-21T14:07:25.986Z,24.80
2017-08-21T14:10:23.987Z,24.80
2017-08-21T14:13:22.059Z,25.00
2017-08-21T14:16:19.630Z,25.20
2017-08-21T14:19:17.565Z,25.30
2017-08-21T14:22:15.143Z,25.00
2017-08-21T14:25:12.890Z,24.00
2017-08-21T14:28:10.561Z,23.30
2017-08-21T14:31:08.318Z,23.10
2017-08-21T14:34:06.255Z,23.00
2017-08-21T14:37:03.899Z,23.10
2017-08-21T14:40:01.840Z,23.10
2017-08-21T14:42:59.717Z,23.50
2017-08-21T14:45:57.656Z,24.00
2017-08-21T14:48:55.433Z,24.30
2017-08-21T14:51:53.338Z,24.40
2017-08-21T14:54:51.047Z,24.50
2017-08-21T14:57:48.549Z,24.60
2017-08-21T15:00:49.334Z,24.50
2017-08-21T15:03:47.011Z,24.60
2017-08-21T15:06:44.832Z,24.70
2017-08-21T15:09:42.649Z,24.60
2017-08-21T15:12:40.302Z,24.40
2017-08-21T15:15:38.045Z,24.20
2017-08-21T15:18:36.756Z,24.10
2017-08-21T15:21:34.830Z,24.10
2017-08-21T15:24:33.488Z,24.00
2017-08-21T15:27:31.200Z,24.10
2017-08-21T15:30:28.955Z,24.10
2017-08-21T15:33:26.809Z,23.90
2017-08-21T15:36:24.520Z,23.70
2017-08-21T15:39:22.018Z,23.70
2017-08-21T15:42:19.710Z,23.70
2017-08-21T15:45:17.346Z,23.80
2017-08-21T15:48:14.924Z,23.90
2017-08-21T15:51:13.014Z,23.90
2017-08-21T15:54:10.858Z,23.90
2017-08-21T15:57:08.503Z,24.00
2017-08-21T16:00:06.283Z,24.00
2017-08-21T16:03:04.930Z,23.90
2017-08-21T16:06:02.691Z,23.90
2017-08-21T16:09:00.342Z,23.90
2017-08-21T16:11:58.236Z,23.70
2017-08-21T16:14:55.901Z,23.40
2017-08-21T16:17:55.727Z,23.10
2017-08-21T16:20:53.251Z,22.80
2017-08-21T16:23:51.918Z,22.80
2017-08-21T16:26:50.630Z,22.70
2017-08-21T16:29:49.483Z,22.80
2017-08-21T16:32:47.071Z,22.80
2017-08-21T16:35:47.999Z,22.60
2017-08-21T16:38:45.814Z,22.60
2017-08-21T16:41:43.472Z,22.40
2017-08-21T16:44:41.087Z,22.20
2017-08-21T16:47:38.704Z,22.20
2017-08-21T16:50:36.436Z,22.30
2017-08-21T16:53:34.209Z,22.20
2017-08-21T16:56:32.072Z,22.20
2017-08-21T16:59:29.795Z,22.30
2017-08-21T17:02:27.716Z,22.30
2017-08-21T17:05:25.431Z,22.30
2017-08-21T17:08:26.363Z,22.20
2017-08-21T17:11:26.246Z,22.10
2017-08-21T17:14:24.202Z,22.10
2017-08-21T17:17:23.082Z,22.00
2017-08-21T17:20:22.078Z,21.90
2017-08-21T17:23:19.623Z,21.80
2017-08-21T17:26:17.360Z,21.70
2017-08-21T17:29:15.088Z,21.60
2017-08-21T17:32:13.504Z,21.40
2017-08-21T17:35:11.336Z,21.30
2017-08-21T17:38:09.999Z,21.20
2017-08-21T17:41:07.634Z,21.20
2017-08-21T17:44:06.203Z,21.10
2017-08-21T17:47:03.974Z,21.10
2017-08-21T17:50:01.709Z,21.10
2017-08-21T17:52:58.662Z,21.00
2017-08-21T17:55:56.422Z,20.90
2017-08-21T17:58:54.048Z,20.70
2017-08-21T18:01:51.678Z,20.60
2017-08-21T18:04:49.539Z,20.40
2017-08-21T18:07:52.391Z,20.20
2017-08-21T18:10:50.200Z,20.00
2017-08-21T18:13:51.968Z,19.80
2017-08-21T18:16:49.770Z,19.60
2017-08-21T18:19:47.628Z,19.40
2017-08-21T18:22:45.607Z,19.10
2017-08-21T18:25:44.443Z,18.90
2017-08-21T18:28:42.191Z,18.60
2017-08-21T18:31:40.337Z,18.40
2017-08-21T18:34:38.106Z,18.20
2017-08-21T18:37:35.847Z,17.90
2017-08-21T18:40:33.468Z,17.70
2017-08-21T18:43:32.233Z,17.40
2017-08-21T18:46:30.011Z,17.20
2017-08-21T18:49:27.938Z,17.00
2017-08-21T18:52:25.748Z,16.90
2017-08-21T18:55:23.660Z,16.80
2017-08-21T18:58:21.290Z,16.70
2017-08-21T19:01:19.161Z,16.60
2017-08-21T19:04:17.304Z,16.50
2017-08-21T19:07:19.253Z,16.30
2017-08-21T19:10:22.982Z,16.20
2017-08-21T19:13:36.685Z,16.00
2017-08-21T19:16:34.607Z,15.80
2017-08-21T19:19:32.062Z,15.60
2017-08-21T19:22:29.727Z,15.60
2017-08-21T19:25:27.544Z,15.60
2017-08-21T19:28:25.395Z,15.40
2017-08-21T19:31:23.244Z,15.20
2017-08-21T19:34:21.098Z,15.20
2017-08-21T19:37:18.691Z,15.20
2017-08-21T19:40:16.327Z,15.00
2017-08-21T19:43:13.972Z,14.80
2017-08-21T19:46:11.865Z,14.70
2017-08-21T19:49:09.788Z,14.60
2017-08-21T19:52:07.630Z,14.60
2017-08-21T19:55:05.347Z,14.40
2017-08-21T19:58:03.007Z,14.30
2017-08-21T20:01:00.990Z,14.40
2017-08-21T20:03:58.707Z,14.30
2017-08-21T20:06:56.569Z,14.20
2017-08-21T20:09:54.196Z,14.20
2017-08-21T20:13:06.147Z,14.20
2017-08-21T20:16:04.069Z,14.10
2017-08-21T20:19:01.260Z,13.90
2017-08-21T20:21:59.258Z,14.00
2017-08-21T20:24:56.962Z,13.90
2017-08-21T20:27:54.541Z,13.70
2017-08-21T20:30:52.413Z,13.50
2017-08-21T20:33:50.175Z,13.40
2017-08-21T20:36:48.134Z,13.40
2017-08-21T20:39:46.040Z,13.50
2017-08-21T20:42:43.885Z,13.50
2017-08-21T20:45:40.903Z,13.40
2017-08-21T20:48:38.827Z,13.50
2017-08-21T20:51:36.600Z,13.50
2017-08-21T20:54:34.456Z,13.50
2017-08-21T20:57:31.974Z,13.40
2017-08-21T21:00:29.863Z,13.30
2017-08-21T21:03:27.762Z,13.30
2017-08-21T21:06:25.630Z,13.30
2017-08-21T21:09:23.326Z,13.30
2017-08-21T21:12:20.390Z,13.30
2017-08-21T21:15:18.255Z,13.40
2017-08-21T21:18:16.032Z,13.30
2017-08-21T21:21:13.599Z,13.20
2017-08-21T21:24:11.480Z,13.10
2017-08-21T21:27:09.315Z,12.90
2017-08-21T21:30:07.310Z,12.70
2017-08-21T21:33:05.063Z,12.80
2017-08-21T21:36:02.848Z,12.70
2017-08-21T21:39:00.476Z,12.50
2017-08-21T21:41:58.384Z,12.40
2017-08-21T21:44:56.123Z,12.30
2017-08-21T21:47:54.827Z,12.10
2017-08-21T21:50:53.363Z,12.00
2017-08-21T21:53:50.822Z,12.00
2017-08-21T21:56:48.591Z,12.00
2017-08-21T21:59:46.208Z,12.00
2017-08-21T22:02:47.053Z,12.10
2017-08-21T22:05:44.743Z,12.10
2017-08-21T22:08:42.356Z,11.90
2017-08-21T22:15:07.095Z,11.80
2017-08-21T22:18:04.968Z,11.80
2017-08-21T22:21:02.818Z,11.80
2017-08-21T22:24:00.640Z,11.90
2017-08-21T22:26:58.380Z,11.90
2017-08-21T22:29:56.298Z,12.00
2017-08-21T22:32:53.404Z,11.90
2017-08-21T22:35:51.286Z,11.80
2017-08-21T22:38:49.050Z,11.70
2017-08-21T22:41:46.866Z,11.50
2017-08-21T22:44:44.852Z,11.50
2017-08-21T22:47:42.683Z,11.50
2017-08-21T22:50:40.697Z,11.40
2017-08-21T22:53:38.458Z,11.40
2017-08-21T22:56:36.219Z,11.30
2017-08-21T22:59:33.886Z,11.30
2017-08-21T23:02:34.479Z,11.40
2017-08-21T23:05:32.226Z,11.40
2017-08-21T23:08:29.966Z,11.30
2017-08-21T23:11:27.898Z,11.20
2017-08-21T23:14:25.499Z,11.20
2017-08-21T23:17:23.370Z,11.10
2017-08-21T23:20:21.072Z,11.10
2017-08-21T23:23:18.743Z,11.10
2017-08-21T23:26:16.450Z,11.10
2017-08-21T23:29:14.541Z,11.00
2017-08-21T23:32:12.360Z,11.00
2017-08-21T23:35:10.229Z,10.90
2017-08-21T23:38:08.035Z,10.90
2017-08-21T23:41:06.974Z,10.90
2017-08-21T23:44:04.886Z,10.80
2017-08-21T23:47:02.854Z,10.70
2017-08-21T23:50:00.767Z,10.60
2017-08-21T23:52:59.543Z,10.60
2017-08-21T23:55:57.202Z,10.70
2017-08-21T23:58:54.763Z,10.60
